David J. Cooper — WDF9940 — position and weather

sailwx.info

Track history (hours):
 
Tides and Currents Weather Stations Pressure Air Temp Water Temp Dewpoint Dewpoint Depression Visibility Wind Speed Wind Dir Waves Ship Positions

David J. Cooper

More information available from US FCC via Universal Licensing System and Coast Guard Vessel Documentation Center.

Last reported at 2014-Sep-02 23:33 UTC. Time now 2014-Sep-02 23:59 UTC.
Position N 30°03' W 090°32'.

Length 29 m; draft 7 m.

Type: Tug. MMSI: 367510430.

Date/timePositionNaut miles runAvg speedWind from/ knotsBaromVisibWave heightAir tempDewpointWater temp
2014-Sep-02 23:33N 30°03' W 090°32'3 2.7
2014-Sep-02 22:30N 30°03' W 090°29'6 0.6
2014-Sep-02 12:33N 30°03' W 090°36'0 0.0
2014-Sep-02 11:34N 30°03' W 090°36'0 0.3
2014-Sep-02 10:28N 30°03' W 090°36'1 0.7
2014-Sep-02 09:33N 30°03' W 090°35'0 0.2
2014-Sep-02 08:31N 30°03' W 090°35'0 0.0
2014-Sep-02 07:31N 30°03' W 090°35'0 0.0
2014-Sep-02 06:31N 30°03' W 090°35'1 0.6
2014-Sep-02 05:33N 30°03' W 090°36'1 0.6
2014-Sep-02 04:33N 30°03' W 090°35'4 3.8
2014-Sep-02 03:33N 30°03' W 090°31'10 7.6
2014-Sep-02 02:14N 29°56' W 090°22'10 0.3
2014-Aug-31 13:33N 30°03' W 090°31'3 2.5
2014-Aug-31 12:33N 30°03' W 090°34'0 0.4
2014-Aug-31 11:33N 30°03' W 090°35'1 0.7
2014-Aug-31 10:33N 30°03' W 090°34'0 0.1
2014-Aug-31 09:33N 30°03' W 090°34'4 3.8
2014-Aug-31 08:33N 30°03' W 090°29'8 7.5
2014-Aug-31 07:31N 29°57' W 090°24'4 0.3
2014-Aug-30 17:10N 29°57' W 090°19'15 0.6
2014-Aug-29 15:33N 30°03' W 090°34'0 0.4
2014-Aug-29 14:33N 30°03' W 090°35'0 0.0
2014-Aug-29 13:33N 30°03' W 090°35'1 0.9
2014-Aug-29 12:32N 30°03' W 090°36'1 0.9
2014-Aug-29 11:32N 30°03' W 090°35'0 0.0
2014-Aug-29 10:32N 30°03' W 090°35'1 0.7
2014-Aug-29 09:33N 30°03' W 090°36'1 0.8
2014-Aug-29 08:33N 30°02' W 090°36'0 0.0
2014-Aug-28 23:18N 30°02' W 090°37'6 8.3
2014-Aug-28 22:33N 30°03' W 090°29'10 0.3
2014-Aug-27 09:11N 29°56' W 090°21'0 0.3
2014-Aug-27 08:33N 29°56' W 090°21'0 0.0
2014-Aug-25 07:23N 29°56' W 090°21'1 0.6
2014-Aug-25 05:31N 29°56' W 090°20'2 1.0
2014-Aug-25 03:33N 29°56' W 090°22'1 0.5
2014-Aug-25 01:25N 29°56' W 090°21'1 0.8
2014-Aug-25 00:12N 29°57' W 090°22'1 0.4
2014-Aug-24 22:16N 29°57' W 090°23'2 0.1
2014-Aug-24 10:10N 29°56' W 090°21'0 0.2
2014-Aug-24 09:25N 29°56' W 090°21'1 0.6
2014-Aug-24 08:05N 29°56' W 090°20'  
Track history (hours):
 
Tides and Currents Weather Stations Pressure Air Temp Water Temp Dewpoint Dewpoint Depression Visibility Wind Speed Wind Dir Waves Ship Positions

David J. Cooper

More information available from US FCC via Universal Licensing System and Coast Guard Vessel Documentation Center.

Last reported at 2014-Sep-02 23:33 UTC. Time now 2014-Sep-02 23:59 UTC.
Position N 30°03' W 090°32'.

Length 29 m; draft 7 m.

Type: Tug. MMSI: 367510430.

Date/timePositionNaut miles runAvg speedWind from/ knotsBaromVisibWave heightAir tempDewpointWater temp
2014-Sep-02 23:33N 30°03' W 090°32'3 2.7
2014-Sep-02 22:30N 30°03' W 090°29'6 0.6
2014-Sep-02 12:33N 30°03' W 090°36'0 0.0
2014-Sep-02 11:34N 30°03' W 090°36'0 0.3
2014-Sep-02 10:28N 30°03' W 090°36'1 0.7
2014-Sep-02 09:33N 30°03' W 090°35'0 0.2
2014-Sep-02 08:31N 30°03' W 090°35'0 0.0
2014-Sep-02 07:31N 30°03' W 090°35'0 0.0
2014-Sep-02 06:31N 30°03' W 090°35'1 0.6
2014-Sep-02 05:33N 30°03' W 090°36'1 0.6
2014-Sep-02 04:33N 30°03' W 090°35'4 3.8
2014-Sep-02 03:33N 30°03' W 090°31'10 7.6
2014-Sep-02 02:14N 29°56' W 090°22'10 0.3
2014-Aug-31 13:33N 30°03' W 090°31'3 2.5
2014-Aug-31 12:33N 30°03' W 090°34'0 0.4
2014-Aug-31 11:33N 30°03' W 090°35'1 0.7
2014-Aug-31 10:33N 30°03' W 090°34'0 0.1
2014-Aug-31 09:33N 30°03' W 090°34'4 3.8
2014-Aug-31 08:33N 30°03' W 090°29'8 7.5
2014-Aug-31 07:31N 29°57' W 090°24'4 0.3
2014-Aug-30 17:10N 29°57' W 090°19'15 0.6
2014-Aug-29 15:33N 30°03' W 090°34'0 0.4
2014-Aug-29 14:33N 30°03' W 090°35'0 0.0
2014-Aug-29 13:33N 30°03' W 090°35'1 0.9
2014-Aug-29 12:32N 30°03' W 090°36'1 0.9
2014-Aug-29 11:32N 30°03' W 090°35'0 0.0
2014-Aug-29 10:32N 30°03' W 090°35'1 0.7
2014-Aug-29 09:33N 30°03' W 090°36'1 0.8
2014-Aug-29 08:33N 30°02' W 090°36'0 0.0
2014-Aug-28 23:18N 30°02' W 090°37'6 8.3
2014-Aug-28 22:33N 30°03' W 090°29'10 0.3
2014-Aug-27 09:11N 29°56' W 090°21'0 0.3
2014-Aug-27 08:33N 29°56' W 090°21'0 0.0
2014-Aug-25 07:23N 29°56' W 090°21'1 0.6
2014-Aug-25 05:31N 29°56' W 090°20'2 1.0
2014-Aug-25 03:33N 29°56' W 090°22'1 0.5
2014-Aug-25 01:25N 29°56' W 090°21'1 0.8
2014-Aug-25 00:12N 29°57' W 090°22'1 0.4
2014-Aug-24 22:16N 29°57' W 090°23'2 0.1
2014-Aug-24 10:10N 29°56' W 090°21'0 0.2
2014-Aug-24 09:25N 29°56' W 090°21'1 0.6
2014-Aug-24 08:05N 29°56' W 090°20'  

Dump ship's entire track history